Time;durP1;ratioP1;P1;durP2;ratioP2;P2;SDS_P1;SDS_P2;PMS_P1;PMS_P2;Temp;Humidity;BMP_temperature;BMP_pressure;BME280_temperature;BME280_humidity;BME280_pressure;Samples;Min_cycle;Max_cycle;Signal;HPM_P1;HPM_P2
2022/03/13 00:00:36;;;;;;;6.93;3.38;;;;;;;3.40;28.66;101726.13;5023317;28;20312;-78
2022/03/13 00:03:04;;;;;;;6.82;3.75;;;;;;;3.37;28.93;101733.88;5000493;28;20048;-78
2022/03/13 00:05:30;;;;;;;5.63;3.00;;;;;;;3.46;28.66;101728.72;5043229;28;20453;-77
2022/03/13 00:07:56;;;;;;;5.88;3.50;;;;;;;3.21;28.89;101724.31;5023099;28;20156;-78
2022/03/13 00:10:27;;;;;;;5.57;3.45;;;;;;;2.92;29.54;101722.44;5029968;28;20033;-80
2022/03/13 00:12:54;;;;;;;8.77;3.33;;;;;;;3.21;29.33;101720.00;5038638;28;20373;-76
2022/03/13 00:15:35;;;;;;;8.15;3.10;;;;;;;3.05;29.04;101715.63;5009870;28;20036;-79
2022/03/13 00:18:01;;;;;;;6.15;3.75;;;;;;;3.25;28.95;101720.84;5041310;28;21551;-78
2022/03/13 00:20:27;;;;;;;5.70;3.22;;;;;;;3.17;28.70;101718.25;5025420;28;20052;-76
2022/03/13 00:22:54;;;;;;;11.75;3.95;;;;;;;3.06;28.92;101713.03;5007787;28;20036;-80
2022/03/13 00:25:20;;;;;;;9.52;3.72;;;;;;;3.08;28.98;101719.06;5042543;28;20174;-77
2022/03/13 00:27:47;;;;;;;4.50;2.80;;;;;;;3.09;29.07;101709.59;5039555;28;20036;-79
2022/03/13 00:30:13;;;;;;;5.68;3.05;;;;;;;2.89;29.19;101712.97;5041523;28;20506;-78
2022/03/13 00:32:40;;;;;;;6.47;3.25;;;;;;;3.22;28.91;101711.38;5044799;28;20458;-77
2022/03/13 00:35:06;;;;;;;4.82;2.90;;;;;;;3.10;28.87;101712.19;5040491;28;20060;-77
2022/03/13 00:37:31;;;;;;;7.90;3.05;;;;;;;3.05;29.09;101716.47;5022634;28;20055;-78
2022/03/13 00:39:57;;;;;;;6.82;3.20;;;;;;;3.09;29.30;101718.22;5040372;28;20044;-78
2022/03/13 00:42:24;;;;;;;8.55;3.55;;;;;;;2.94;29.53;101723.31;5025176;28;20547;-78
2022/03/13 00:44:49;;;;;;;10.32;4.07;;;;;;;2.91;29.52;101719.00;5042223;28;20044;-79
2022/03/13 00:47:20;;;;;;;7.30;4.28;;;;;;;3.01;29.51;101717.31;5041745;28;20044;-79
2022/03/13 00:49:46;;;;;;;6.80;3.35;;;;;;;2.97;29.55;101710.41;5045305;28;20210;-79
2022/03/13 00:52:12;;;;;;;7.13;3.80;;;;;;;2.89;29.86;101715.53;5045567;28;20039;-77
2022/03/13 00:54:37;;;;;;;6.68;3.00;;;;;;;2.87;29.78;101713.81;5022442;28;20698;-78
2022/03/13 00:57:03;;;;;;;7.35;3.55;;;;;;;2.80;29.97;101712.03;5024678;28;20028;-77
2022/03/13 00:59:29;;;;;;;8.93;3.67;;;;;;;2.82;29.94;101707.72;5027338;28;20048;-77
2022/03/13 01:01:54;;;;;;;8.00;3.58;;;;;;;2.73;29.93;101706.84;5041019;28;20180;-76
2022/03/13 01:04:20;;;;;;;11.30;3.15;;;;;;;2.81;29.95;101704.28;5021485;28;20028;-76
2022/03/13 01:06:46;;;;;;;7.13;3.03;;;;;;;2.81;29.74;101706.03;5044483;28;20542;-77
2022/03/13 01:09:12;;;;;;;6.30;3.10;;;;;;;2.81;29.95;101699.13;5028015;28;20033;-78
2022/03/13 01:11:38;;;;;;;7.55;3.75;;;;;;;2.69;29.87;101699.03;5040511;28;20127;-79
2022/03/13 01:14:04;;;;;;;7.32;3.25;;;;;;;2.62;29.89;101698.16;5040615;28;20136;-77
2022/03/13 01:16:35;;;;;;;4.93;2.88;;;;;;;2.72;29.98;101702.53;5043862;28;20036;-77
2022/03/13 01:19:00;;;;;;;5.53;3.33;;;;;;;2.71;30.17;101695.66;5024668;28;20042;-78
2022/03/13 01:21:28;;;;;;;8.80;4.15;;;;;;;2.61;30.08;101706.75;5045427;28;20041;-78
2022/03/13 01:23:59;;;;;;;7.15;3.50;;;;;;;2.53;30.24;101695.50;5022693;28;20041;-78
2022/03/13 01:26:24;;;;;;;5.30;3.60;;;;;;;2.62;30.00;101698.16;5046582;28;20499;-77
2022/03/13 01:28:51;;;;;;;6.90;3.80;;;;;;;2.43;30.46;101692.00;5027099;28;20112;-79
2022/03/13 01:31:21;;;;;;;8.38;3.47;;;;;;;2.49;30.20;101689.47;5009075;28;20043;-78
2022/03/13 01:33:48;;;;;;;8.43;3.60;;;;;;;2.46;30.62;101694.59;5026706;28;20090;-79
2022/03/13 01:36:13;;;;;;;10.15;3.95;;;;;;;2.40;30.76;101686.84;5044496;28;20041;-78
2022/03/13 01:38:39;;;;;;;6.30;3.83;;;;;;;2.28;30.66;101692.75;5039932;28;20036;-78
2022/03/13 01:41:05;;;;;;;6.20;2.80;;;;;;;2.18;30.84;101695.28;5024627;28;20033;-79
2022/03/13 01:43:31;;;;;;;7.55;3.45;;;;;;;2.23;30.50;101694.44;5026948;28;20068;-77
2022/03/13 01:46:01;;;;;;;9.68;3.90;;;;;;;2.25;30.66;101682.44;5001770;28;20124;-79
2022/03/13 01:48:27;;;;;;;6.75;3.38;;;;;;;2.26;30.55;101686.72;5041353;28;20056;-77
2022/03/13 01:50:53;;;;;;;6.35;3.83;;;;;;;2.27;30.34;101685.88;5022539;28;20041;-77
2022/03/13 01:53:21;;;;;;;7.50;3.25;;;;;;;2.25;30.76;101677.25;5045215;28;20037;-79
2022/03/13 01:55:48;;;;;;;6.90;3.70;;;;;;;2.27;30.26;101677.28;5042519;28;20048;-75
2022/03/13 01:58:15;;;;;;;7.65;3.55;;;;;;;2.04;30.71;101677.09;5039605;28;20533;-79
2022/03/13 02:00:40;;;;;;;6.72;3.45;;;;;;;2.15;30.81;101672.88;5040601;28;20044;-77
2022/03/13 02:03:09;;;;;;;9.50;4.15;;;;;;;2.13;30.50;101672.00;5041289;28;20064;-78
2022/03/13 02:05:35;;;;;;;5.47;3.53;;;;;;;2.14;30.40;101672.00;5023023;28;20036;-77
2022/03/13 02:08:35;;;;;;;9.45;3.17;;;;;;;2.05;30.56;101668.50;5004436;28;20048;-78
2022/03/13 02:11:01;;;;;;;11.68;4.32;;;;;;;2.01;31.00;101666.75;5017447;28;20049;-77
2022/03/13 02:13:27;;;;;;;7.97;3.70;;;;;;;2.04;30.61;101662.50;5024738;28;20114;-77
2022/03/13 02:15:55;;;;;;;10.10;3.58;;;;;;;1.91;31.15;101665.81;5026134;28;20160;-79
2022/03/13 02:18:21;;;;;;;6.38;3.55;;;;;;;1.91;30.96;101670.97;5024021;28;20091;-77
2022/03/13 02:20:46;;;;;;;8.98;3.65;;;;;;;1.66;31.23;101672.44;5021341;28;20120;-78
2022/03/13 02:23:19;;;;;;;6.05;3.70;;;;;;;1.81;31.27;101670.00;5041072;28;20040;-78
2022/03/13 02:25:48;;;;;;;9.13;4.05;;;;;;;1.62;31.23;101660.41;5038751;28;20197;-76
2022/03/13 02:28:14;;;;;;;8.68;3.65;;;;;;;1.86;31.10;101668.38;5020188;28;20089;-78
2022/03/13 02:30:40;;;;;;;5.72;2.67;;;;;;;1.86;30.57;101673.53;5043880;28;20032;-78
2022/03/13 02:33:05;;;;;;;8.20;3.83;;;;;;;1.86;29.88;101670.06;5044169;28;20171;-77
2022/03/13 02:35:31;;;;;;;7.68;3.63;;;;;;;1.82;30.24;101664.03;5040756;28;20036;-77
2022/03/13 02:37:57;;;;;;;5.75;3.58;;;;;;;1.93;29.97;101662.41;5022843;28;20044;-77
2022/03/13 02:40:24;;;;;;;4.60;2.97;;;;;;;1.81;30.30;101662.28;5028129;28;20029;-77
2022/03/13 02:42:51;;;;;;;7.25;3.47;;;;;;;1.92;30.07;101657.22;5021227;28;20268;-78
2022/03/13 02:45:35;;;;;;;8.85;3.92;;;;;;;1.88;30.25;101665.78;5045880;28;20124;-78
2022/03/13 02:48:04;;;;;;;14.60;4.15;;;;;;;1.81;30.32;101664.00;5006004;28;20083;-77
2022/03/13 02:50:30;;;;;;;8.18;4.28;;;;;;;1.83;30.36;101652.84;5021795;28;20090;-77
2022/03/13 02:52:55;;;;;;;8.25;3.90;;;;;;;1.74;30.36;101660.50;5020077;28;20037;-80
2022/03/13 02:55:21;;;;;;;7.05;3.85;;;;;;;1.75;30.67;101659.63;5029103;28;20500;-78
2022/03/13 02:57:47;;;;;;;7.07;4.20;;;;;;;1.62;30.94;101655.25;5040712;28;20032;-78
2022/03/13 03:00:15;;;;;;;5.22;3.33;;;;;;;1.58;30.96;101650.91;5026487;28;20087;-76
2022/03/13 03:02:41;;;;;;;7.30;3.47;;;;;;;1.62;31.19;101652.66;5039440;28;20604;-77
2022/03/13 03:05:08;;;;;;;7.72;3.67;;;;;;;1.40;31.24;101649.88;5043162;28;20033;-79
2022/03/13 03:07:34;;;;;;;6.60;3.47;;;;;;;1.49;31.24;101647.38;5042233;28;20052;-77
2022/03/13 03:10:01;;;;;;;6.28;3.35;;;;;;;1.28;31.65;101644.53;5047673;28;20043;-79
2022/03/13 03:12:27;;;;;;;6.10;3.83;;;;;;;1.49;31.21;101637.06;5030792;28;20116;-77
2022/03/13 03:14:54;;;;;;;7.97;4.15;;;;;;;1.39;31.62;101647.22;5041132;28;20186;-78
2022/03/13 03:17:20;;;;;;;7.43;3.47;;;;;;;1.42;31.09;101640.44;5024349;28;20565;-80
2022/03/13 03:19:45;;;;;;;9.82;3.20;;;;;;;1.30;31.53;101640.25;5025091;28;20039;-77
2022/03/13 03:22:11;;;;;;;6.28;3.58;;;;;;;1.41;31.22;101643.00;5039219;28;20044;-77
2022/03/13 03:24:37;;;;;;;9.70;4.32;;;;;;;1.08;32.00;101644.31;5027772;28;20040;-76
2022/03/13 03:27:02;;;;;;;5.85;3.63;;;;;;;1.34;31.95;101647.19;5024166;28;20049;-77
2022/03/13 03:29:29;;;;;;;7.68;3.92;;;;;;;1.40;31.41;101643.81;5042802;28;20561;-78
2022/03/13 03:31:56;;;;;;;8.23;3.45;;;;;;;1.34;31.65;101636.88;5023316;28;20041;-78
2022/03/13 03:34:24;;;;;;;6.25;4.28;;;;;;;1.36;31.73;101640.34;5025226;28;20147;-79
2022/03/13 03:36:59;;;;;;;9.30;3.35;;;;;;;1.30;31.81;101632.53;5040060;28;20239;-77
2022/03/13 03:39:26;;;;;;;10.05;4.22;;;;;;;1.31;31.92;101626.56;5028890;28;20155;-78
2022/03/13 03:41:54;;;;;;;7.00;3.88;;;;;;;1.21;31.76;101635.88;5041126;28;20064;-77
2022/03/13 03:44:20;;;;;;;9.30;3.65;;;;;;;1.32;31.98;101633.41;5026417;28;20044;-78
2022/03/13 03:46:47;;;;;;;7.72;4.00;;;;;;;1.36;31.66;101635.19;5008207;28;20044;-77
2022/03/13 03:49:13;;;;;;;4.85;3.00;;;;;;;1.28;31.49;101636.81;5041278;28;20046;-79
2022/03/13 03:51:39;;;;;;;8.35;3.58;;;;;;;1.24;31.99;101635.94;5030522;28;20041;-79
2022/03/13 03:54:06;;;;;;;9.90;3.35;;;;;;;1.31;31.60;101639.44;5043163;28;20037;-77
2022/03/13 03:56:32;;;;;;;9.45;4.97;;;;;;;1.27;31.91;101647.97;5008205;28;20065;-76
2022/03/13 03:58:58;;;;;;;10.98;4.38;;;;;;;1.18;31.97;101655.59;5024932;28;20328;-78
2022/03/13 04:01:23;;;;;;;8.48;3.85;;;;;;;1.16;31.91;101647.84;5043691;28;20049;-77
2022/03/13 04:03:50;;;;;;;8.38;4.05;;;;;;;1.17;32.09;101653.84;5026361;28;20040;-78
2022/03/13 04:06:17;;;;;;;8.48;4.15;;;;;;;1.00;32.05;101646.78;5046090;28;20151;-75
2022/03/13 04:08:42;;;;;;;10.40;3.95;;;;;;;1.01;32.53;101650.22;5025118;28;20073;-77
2022/03/13 04:11:08;;;;;;;7.38;3.63;;;;;;;1.06;32.57;101652.03;5024900;28;20076;-79
2022/03/13 04:13:38;;;;;;;7.20;4.30;;;;;;;0.84;32.93;101656.03;5045798;28;20149;-79
2022/03/13 04:16:06;;;;;;;9.38;4.05;;;;;;;0.86;32.96;101653.50;5010390;28;20037;-78
2022/03/13 04:18:32;;;;;;;9.43;4.38;;;;;;;0.87;33.07;101655.22;5040202;28;20041;-79
2022/03/13 04:20:59;;;;;;;6.85;3.65;;;;;;;0.77;33.26;101649.09;5044883;28;20493;-77
2022/03/13 04:23:25;;;;;;;6.50;3.70;;;;;;;0.74;33.33;101643.88;5029359;28;20037;-77
2022/03/13 04:25:51;;;;;;;6.57;4.25;;;;;;;0.69;33.61;101645.53;5042300;28;20040;-77
2022/03/13 04:28:17;;;;;;;8.02;4.00;;;;;;;0.62;33.41;101648.88;5045843;28;20040;-78
2022/03/13 04:30:44;;;;;;;8.27;3.53;;;;;;;0.72;33.53;101647.28;5029805;28;20044;-78
2022/03/13 04:33:09;;;;;;;7.97;4.28;;;;;;;0.73;33.53;101646.47;5041760;28;20583;-78
2022/03/13 04:35:35;;;;;;;9.27;4.50;;;;;;;0.74;33.48;101650.75;5043039;28;20068;-79
2022/03/13 04:38:01;;;;;;;9.90;4.78;;;;;;;0.70;33.52;101657.56;5023063;28;20044;-77
2022/03/13 04:40:26;;;;;;;7.55;4.78;;;;;;;0.78;33.41;101653.38;5045980;28;20052;-79
2022/03/13 04:42:52;;;;;;;10.05;4.60;;;;;;;0.63;33.43;101651.44;5044037;28;20044;-78
2022/03/13 04:45:18;;;;;;;5.88;3.75;;;;;;;0.53;33.51;101653.91;5042894;28;20450;-77
2022/03/13 04:47:44;;;;;;;6.28;4.10;;;;;;;0.65;33.56;101649.78;5043664;28;20047;-79
2022/03/13 04:50:10;;;;;;;9.98;4.57;;;;;;;0.65;33.58;101648.91;5042148;28;20025;-77
2022/03/13 04:52:36;;;;;;;7.05;4.53;;;;;;;0.67;33.40;101642.94;5005484;28;20045;-79
2022/03/13 04:55:03;;;;;;;6.88;4.05;;;;;;;0.57;33.38;101653.06;5042004;28;20037;-77
2022/03/13 04:57:29;;;;;;;8.98;4.35;;;;;;;0.65;33.30;101644.63;5016799;28;20059;-79
2022/03/13 04:59:54;;;;;;;6.43;3.53;;;;;;;0.54;33.60;101641.03;5045384;28;20033;-79
2022/03/13 05:02:20;;;;;;;11.98;4.28;;;;;;;0.60;33.35;101646.28;5041957;28;20056;-80
2022/03/13 05:04:46;;;;;;;10.55;4.45;;;;;;;0.57;33.35;101646.25;5030069;28;20032;-77
2022/03/13 05:07:12;;;;;;;7.38;3.80;;;;;;;0.48;33.50;101652.13;5028838;28;20033;-79
2022/03/13 05:09:38;;;;;;;7.32;4.10;;;;;;;0.49;33.32;101647.84;5029639;28;20032;-77
2022/03/13 05:12:09;;;;;;;8.20;4.72;;;;;;;0.28;33.18;101645.81;5042372;28;20587;-79
2022/03/13 05:14:35;;;;;;;9.73;4.35;;;;;;;0.56;33.27;101648.78;5044525;28;20033;-77
2022/03/13 05:17:01;;;;;;;7.85;3.97;;;;;;;0.59;33.12;101649.72;5009517;28;20128;-78
2022/03/13 05:19:27;;;;;;;8.52;4.60;;;;;;;0.49;33.21;101642.69;5025319;28;20108;-77
2022/03/13 05:21:52;;;;;;;9.85;3.85;;;;;;;0.52;32.94;101647.88;5029104;28;20037;-77
2022/03/13 05:24:18;;;;;;;8.10;4.60;;;;;;;0.33;33.22;101646.75;5047017;28;20048;-77
2022/03/13 05:26:45;;;;;;;6.63;3.72;;;;;;;0.28;33.37;101641.53;5040805;28;20057;-77
2022/03/13 05:29:11;;;;;;;11.27;4.95;;;;;;;0.30;33.42;101646.72;5026549;28;20037;-76
2022/03/13 05:31:37;;;;;;;10.82;4.15;;;;;;;0.47;33.15;101644.38;5048658;28;20245;-77
2022/03/13 05:34:06;;;;;;;11.38;3.72;;;;;;;0.45;33.04;101646.91;5062554;28;20105;-76
2022/03/13 05:36:32;;;;;;;8.90;5.22;;;;;;;0.36;33.30;101646.78;5025954;28;20608;-80
2022/03/13 05:38:57;;;;;;;9.77;4.55;;;;;;;0.44;33.30;101644.34;5018562;28;20052;-79
2022/03/13 05:41:26;;;;;;;10.27;3.92;;;;;;;0.57;32.82;101646.25;5024868;28;20032;-79
2022/03/13 05:43:52;;;;;;;10.52;4.28;;;;;;;0.40;33.41;101652.84;5023000;28;20044;-80
2022/03/13 05:46:18;;;;;;;9.48;4.32;;;;;;;0.46;32.99;101647.81;5030780;28;20032;-77
2022/03/13 05:48:43;;;;;;;8.35;4.32;;;;;;;0.21;33.28;101643.97;5022682;28;20122;-77
2022/03/13 05:51:09;;;;;;;14.60;4.30;;;;;;;0.59;33.03;101644.56;5023152;28;20040;-77
2022/03/13 05:53:34;;;;;;;8.63;4.25;;;;;;;0.47;33.03;101644.38;5026871;28;20043;-77
2022/03/13 05:56:00;;;;;;;10.50;4.80;;;;;;;0.48;33.01;101651.28;5040454;28;20041;-76
2022/03/13 05:58:27;;;;;;;9.40;4.40;;;;;;;0.67;32.57;101647.22;5040754;28;20045;-76
2022/03/13 06:01:03;;;;;;;8.70;4.43;;;;;;;0.55;32.91;101663.38;5041622;28;20111;-79
2022/03/13 06:03:29;;;;;;;9.00;4.40;;;;;;;0.39;32.91;101656.25;5029785;28;20085;-76
2022/03/13 06:05:55;;;;;;;10.07;4.28;;;;;;;0.52;32.60;101657.31;5024602;28;20060;-77
2022/03/13 06:08:21;;;;;;;11.32;5.10;;;;;;;0.58;32.64;101653.09;5046261;28;20040;-79
2022/03/13 06:10:47;;;;;;;10.90;4.60;;;;;;;0.51;32.81;101659.00;5026155;28;20028;-77
2022/03/13 06:13:13;;;;;;;15.32;5.15;;;;;;;0.57;32.62;101653.97;5024397;28;20041;-77
2022/03/13 06:15:39;;;;;;;11.00;4.75;;;;;;;0.71;32.49;101648.16;5022443;28;20132;-78
2022/03/13 06:18:04;;;;;;;7.40;4.30;;;;;;;0.53;32.76;101661.63;5026176;28;20179;-77
2022/03/13 06:20:30;;;;;;;8.95;3.88;;;;;;;0.93;32.21;101650.16;5026479;28;20095;-79
2022/03/13 06:22:57;;;;;;;8.18;4.68;;;;;;;0.93;32.16;101660.44;5038768;28;20421;-77
2022/03/13 06:25:22;;;;;;;8.32;4.40;;;;;;;0.77;32.17;101658.50;5039270;28;20071;-75
2022/03/13 06:27:48;;;;;;;13.68;4.75;;;;;;;0.83;32.08;101649.16;5038785;28;20045;-78
2022/03/13 06:30:15;;;;;;;8.68;4.63;;;;;;;1.18;31.93;101653.88;5044545;28;20094;-77
2022/03/13 06:32:42;;;;;;;10.40;4.88;;;;;;;1.38;31.54;101654.09;5042340;28;20040;-76
2022/03/13 06:35:09;;;;;;;8.95;5.53;;;;;;;1.88;30.67;101653.75;5026440;28;20433;-78
2022/03/13 06:37:36;;;;;;;8.00;4.47;;;;;;;2.13;29.94;101644.50;5042720;28;20037;-77
2022/03/13 06:40:02;;;;;;;10.45;5.47;;;;;;;2.60;29.13;101647.38;5042576;28;20032;-77
2022/03/13 06:42:28;;;;;;;8.52;4.60;;;;;;;2.66;28.70;101648.28;5026831;28;20040;-79
2022/03/13 06:44:53;;;;;;;11.35;4.63;;;;;;;3.09;28.46;101643.31;5026379;28;20035;-79
2022/03/13 06:47:20;;;;;;;9.38;4.80;;;;;;;3.73;27.12;101642.59;5023184;28;20041;-76
2022/03/13 06:49:46;;;;;;;7.43;5.10;;;;;;;3.76;27.36;101647.81;5042060;28;20060;-77
2022/03/13 06:52:11;;;;;;;12.15;5.95;;;;;;;4.00;26.57;101646.91;5029809;28;20526;-78
2022/03/13 06:54:37;;;;;;;8.32;4.10;;;;;;;4.27;26.62;101642.59;5042909;28;20455;-79
2022/03/13 06:57:03;;;;;;;7.70;4.28;;;;;;;5.32;25.04;101647.44;5029046;28;20043;-79
2022/03/13 06:59:28;;;;;;;11.50;4.70;;;;;;;5.34;24.53;101640.53;5045214;28;20094;-78
2022/03/13 07:01:54;;;;;;;7.05;4.63;;;;;;;5.13;25.02;101650.13;5027660;28;20065;-77
2022/03/13 07:04:19;;;;;;;15.02;5.32;;;;;;;5.80;24.36;101653.19;5027207;28;20064;-79
2022/03/13 07:06:45;;;;;;;6.38;4.68;;;;;;;6.69;23.07;101648.03;5041334;28;20052;-78
2022/03/13 07:09:10;;;;;;;9.30;4.97;;;;;;;6.69;22.96;101655.84;5005526;28;20071;-77
2022/03/13 07:11:36;;;;;;;6.75;4.53;;;;;;;6.62;23.18;101653.31;5042193;28;20106;-77
2022/03/13 07:14:05;;;;;;;10.68;5.40;;;;;;;6.62;23.10;101659.38;5026234;28;20048;-78
2022/03/13 07:16:32;;;;;;;10.88;5.47;;;;;;;6.08;23.67;101665.06;5041325;28;20123;-78
2022/03/13 07:18:57;;;;;;;9.27;5.47;;;;;;;6.90;23.07;101657.31;5030240;28;20104;-78
2022/03/13 07:21:23;;;;;;;10.23;5.05;;;;;;;7.62;21.85;101647.69;5043647;28;20119;-77
2022/03/13 07:23:49;;;;;;;15.95;5.10;;;;;;;7.82;21.62;101646.53;5044059;28;20107;-79
2022/03/13 07:26:14;;;;;;;7.50;5.03;;;;;;;7.10;22.28;101644.06;5028522;28;20107;-77
2022/03/13 07:28:40;;;;;;;9.00;5.70;;;;;;;7.31;22.22;101647.25;5023081;28;20029;-79
2022/03/13 07:31:05;;;;;;;7.68;4.75;;;;;;;8.06;20.95;101656.53;5031932;28;20513;-78
2022/03/13 07:33:32;;;;;;;7.32;5.35;;;;;;;8.75;20.18;101650.09;5046825;28;20071;-77
2022/03/13 07:35:57;;;;;;;7.22;4.55;;;;;;;8.42;20.20;101650.72;5002345;28;20037;-77
2022/03/13 07:38:23;;;;;;;8.82;4.72;;;;;;;9.64;19.67;101646.44;5026532;28;20643;-77
2022/03/13 07:40:49;;;;;;;9.43;5.28;;;;;;;9.38;19.85;101650.50;5038551;28;20041;-78
2022/03/13 07:43:15;;;;;;;12.20;4.80;;;;;;;9.84;19.45;101656.44;5027467;28;20044;-78
2022/03/13 07:45:41;;;;;;;15.85;5.30;;;;;;;10.54;18.94;101657.22;5043105;28;20041;-76
2022/03/13 07:48:06;;;;;;;7.32;4.38;;;;;;;10.17;19.37;101654.75;5041994;28;20035;-79
2022/03/13 07:50:32;;;;;;;7.22;4.78;;;;;;;10.18;19.08;101657.28;5029251;28;20540;-79
2022/03/13 07:52:58;;;;;;;16.98;6.25;;;;;;;9.48;19.53;101651.16;5040636;28;20048;-78
2022/03/13 07:55:25;;;;;;;5.95;4.85;;;;;;;8.59;20.90;101663.44;5043194;28;20044;-79
2022/03/13 07:57:51;;;;;;;8.88;5.13;;;;;;;7.72;21.90;101664.91;5024146;28;20210;-77
2022/03/13 08:00:18;;;;;;;11.52;4.88;;;;;;;7.40;22.12;101662.75;5041893;28;20040;-78
2022/03/13 08:02:52;;;;;;;6.88;4.80;;;;;;;6.80;22.84;101663.50;5046297;28;20102;-78
2022/03/13 08:05:18;;;;;;;8.57;5.30;;;;;;;6.22;23.82;101661.50;5041480;28;20370;-80
2022/03/13 08:07:45;;;;;;;12.93;5.38;;;;;;;5.87;24.32;101666.09;5043515;28;20383;-79
2022/03/13 08:10:11;;;;;;;6.60;4.85;;;;;;;6.12;24.45;101663.28;5024900;28;20037;-77
2022/03/13 08:12:38;;;;;;;7.45;4.88;;;;;;;7.24;23.16;101656.88;5027804;28;20084;-78
2022/03/13 08:15:06;;;;;;;11.98;5.03;;;;;;;8.06;22.37;101656.53;5008616;28;20051;-78
2022/03/13 08:17:34;;;;;;;12.50;5.50;;;;;;;8.61;22.15;101652.09;5024100;28;20426;-78
2022/03/13 08:20:26;;;;;;;10.52;6.03;;;;;;;7.58;22.91;101661.66;5018118;28;20092;-79
2022/03/13 08:23:50;;;;;;;12.73;5.90;;;;;;;6.17;24.81;101655.47;5016961;28;20107;-80
2022/03/13 08:26:27;;;;;;;8.60;5.10;;;;;;;6.66;24.25;101649.81;5027986;28;20032;-78
2022/03/13 08:29:21;;;;;;;9.43;4.90;;;;;;;8.18;22.53;101652.00;5026288;28;20101;-77
2022/03/13 08:31:49;;;;;;;8.25;5.05;;;;;;;8.20;22.40;101650.25;5005406;28;20067;-80
2022/03/13 08:34:41;;;;;;;8.80;5.00;;;;;;;9.21;21.19;101658.72;4999633;28;20045;-78
2022/03/13 08:37:27;;;;;;;11.63;4.85;;;;;;;9.47;21.30;101652.03;5037995;28;20469;-80
2022/03/13 08:39:52;;;;;;;9.55;5.07;;;;;;;9.34;21.17;101659.28;5040921;28;20089;-78
2022/03/13 08:42:18;;;;;;;12.20;5.53;;;;;;;10.22;20.32;101652.84;5038881;28;20163;-79
2022/03/13 08:44:43;;;;;;;11.30;6.68;;;;;;;10.29;19.75;101643.97;5026743;28;20051;-79
2022/03/13 08:47:10;;;;;;;18.15;5.85;;;;;;;10.33;20.52;101647.34;5024410;28;20028;-79
2022/03/13 08:49:35;;;;;;;10.27;5.38;;;;;;;9.92;21.01;101652.75;5039250;28;20040;-79
2022/03/13 08:52:01;;;;;;;8.88;5.65;;;;;;;9.64;20.94;101644.69;5036754;28;20129;-79
2022/03/13 08:54:26;;;;;;;10.35;5.57;;;;;;;9.39;21.18;101645.25;5025374;28;20040;-79
2022/03/13 08:56:52;;;;;;;12.55;5.03;;;;;;;8.55;22.04;101636.56;5018874;28;20043;-80
2022/03/13 08:59:20;;;;;;;11.10;6.15;;;;;;;8.89;22.41;101636.78;5020804;28;20615;-78
2022/03/13 09:01:48;;;;;;;8.60;4.97;;;;;;;9.02;21.83;101642.59;5021880;28;20505;-78
2022/03/13 09:04:13;;;;;;;12.13;5.45;;;;;;;8.67;22.37;101640.66;5034999;28;20176;-77
2022/03/13 09:06:39;;;;;;;11.27;5.82;;;;;;;7.83;23.08;101643.06;5022159;28;20485;-80
2022/03/13 09:09:06;;;;;;;13.43;6.72;;;;;;;8.00;22.79;101645.38;5036415;28;20498;-78
2022/03/13 09:11:34;;;;;;;6.38;4.70;;;;;;;7.46;23.58;101640.97;5038052;28;20328;-78
2022/03/13 09:14:00;;;;;;;10.20;5.65;;;;;;;7.88;22.51;101638.63;5019435;28;20059;-77
2022/03/13 09:16:26;;;;;;;8.52;4.78;;;;;;;8.14;22.32;101640.81;5020243;28;20033;-79
2022/03/13 09:18:53;;;;;;;8.73;5.25;;;;;;;7.83;22.98;101640.47;5035650;28;20128;-78
2022/03/13 09:21:20;;;;;;;6.55;4.40;;;;;;;7.83;22.72;101625.69;5016207;28;20715;-77
2022/03/13 09:23:45;;;;;;;7.35;5.38;;;;;;;8.13;23.07;101621.69;5041059;28;20135;-79
2022/03/13 09:26:11;;;;;;;9.98;4.68;;;;;;;8.19;22.74;101618.13;5022152;28;20152;-79
2022/03/13 09:28:38;;;;;;;8.98;5.47;;;;;;;8.17;22.46;101619.06;5011795;28;20094;-80
2022/03/13 09:31:04;;;;;;;6.13;4.65;;;;;;;8.12;22.83;101617.38;5037241;28;20037;-79
2022/03/13 09:33:29;;;;;;;11.32;5.78;;;;;;;8.34;23.68;101615.25;5020378;28;20048;-78
2022/03/13 09:35:55;;;;;;;7.70;5.15;;;;;;;8.32;23.24;101629.19;5013558;28;20032;-79
2022/03/13 09:38:20;;;;;;;12.35;5.40;;;;;;;7.98;23.06;101624.59;5036863;28;20545;-80
2022/03/13 09:40:46;;;;;;;7.82;5.55;;;;;;;8.07;23.05;101627.03;5018893;28;20414;-79
2022/03/13 09:43:11;;;;;;;7.20;5.75;;;;;;;8.29;23.26;101626.63;5038539;28;20037;-79
2022/03/13 09:45:37;;;;;;;9.55;5.60;;;;;;;7.86;23.33;101630.00;5021470;28;20051;-75
2022/03/13 09:48:06;;;;;;;11.05;6.15;;;;;;;7.60;23.54;101631.28;5036791;28;20040;-78
2022/03/13 09:50:31;;;;;;;10.60;5.88;;;;;;;7.67;23.73;101625.09;5019485;28;20036;-80
2022/03/13 09:52:57;;;;;;;8.73;5.65;;;;;;;7.94;23.16;101636.78;5019304;28;20247;-78
2022/03/13 09:55:23;;;;;;;13.02;6.10;;;;;;;7.74;23.69;101631.06;5040450;28;20491;-78
2022/03/13 09:57:48;;;;;;;9.68;5.40;;;;;;;7.88;23.80;101628.22;5019504;28;20056;-78
2022/03/13 10:00:20;;;;;;;10.68;5.57;;;;;;;8.04;23.63;101631.41;5026176;28;20083;-79
2022/03/13 10:02:46;;;;;;;;;;;;;;;8.43;23.47;101642.03;5001922;28;20312;-79
2022/03/13 10:05:19;;;;;;;14.98;5.18;;;;;;;8.51;23.40;101635.75;5042362;28;20452;-79
2022/03/13 10:07:52;;;;;;;13.75;6.05;;;;;;;8.45;23.21;101635.91;5039145;28;20422;-78
2022/03/13 10:10:18;;;;;;;8.65;5.82;;;;;;;8.51;23.16;101635.75;5028476;28;20478;-79
2022/03/13 10:12:45;;;;;;;12.05;5.45;;;;;;;8.75;22.71;101628.38;5026147;28;20198;-79
2022/03/13 10:15:12;;;;;;;10.80;5.97;;;;;;;9.09;22.60;101627.69;5024194;28;20096;-79
2022/03/13 10:17:38;;;;;;;13.77;5.95;;;;;;;9.79;22.19;101628.69;5023141;28;20478;-76
2022/03/13 10:20:35;;;;;;;11.93;5.70;;;;;;;9.46;21.93;101619.88;5024662;28;20550;-78
2022/03/13 10:23:00;;;;;;;10.15;5.38;;;;;;;9.72;22.24;101621.00;5028554;28;20592;-77
2022/03/13 10:25:34;;;;;;;10.10;6.72;;;;;;;10.10;21.65;101627.91;5046323;28;20036;-80
2022/03/13 10:28:30;;;;;;;9.13;5.72;;;;;;;9.60;21.87;101625.63;5026778;28;20272;-80
2022/03/13 10:30:59;;;;;;;15.10;5.97;;;;;;;9.32;21.73;101630.66;5038797;28;20372;-79
2022/03/13 10:33:48;;;;;;;11.25;6.45;;;;;;;9.39;21.63;101640.03;5028920;28;20051;-79
2022/03/13 10:36:21;;;;;;;9.50;5.28;;;;;;;8.98;22.01;101634.00;5039563;28;20068;-79
2022/03/13 10:38:49;;;;;;;7.47;4.72;;;;;;;9.20;21.40;101638.72;5042786;28;20072;-79
2022/03/13 10:41:15;;;;;;;10.98;5.15;;;;;;;8.71;21.29;101624.13;5023544;28;20044;-79
2022/03/13 10:43:40;;;;;;;8.63;5.05;;;;;;;8.80;21.63;101633.50;5039965;28;20045;-79
2022/03/13 10:46:06;;;;;;;6.43;4.55;;;;;;;8.78;21.68;101623.09;5027504;28;20029;-80
2022/03/13 10:48:37;;;;;;;9.77;5.85;;;;;;;8.83;21.95;101618.66;5024354;28;20430;-80
2022/03/13 10:51:04;;;;;;;12.82;5.50;;;;;;;8.85;21.84;101629.94;5022166;28;20032;-80
2022/03/13 10:53:32;;;;;;;8.70;4.75;;;;;;;8.41;21.71;101629.03;5040705;28;20072;-78
2022/03/13 10:56:15;;;;;;;9.75;6.10;;;;;;;8.72;21.24;101620.66;5043910;28;20052;-80
2022/03/13 10:58:45;;;;;;;13.18;5.72;;;;;;;9.16;20.85;101613.59;5043144;28;20079;-79
2022/03/13 11:01:12;;;;;;;10.90;5.30;;;;;;;8.77;21.11;101613.56;5009827;28;20056;-79
2022/03/13 11:03:52;;;;;;;10.55;5.50;;;;;;;8.87;21.98;101620.28;5012625;28;20050;-78
2022/03/13 11:06:20;;;;;;;12.13;5.07;;;;;;;8.76;21.52;101614.44;5028951;28;20033;-79
2022/03/13 11:08:47;;;;;;;8.77;5.68;;;;;;;8.72;21.10;101618.03;5026774;28;20204;-77
2022/03/13 11:11:16;;;;;;;7.65;4.75;;;;;;;9.06;21.25;101625.16;5027856;28;20044;-79
2022/03/13 11:13:43;;;;;;;9.27;4.50;;;;;;;9.25;20.83;101621.22;5042176;28;20176;-78
2022/03/13 11:16:17;;;;;;;11.90;5.32;;;;;;;9.53;20.57;101618.00;5021663;28;20045;-80
2022/03/13 11:18:45;;;;;;;9.73;4.43;;;;;;;9.30;20.06;101618.53;5025592;28;20045;-78
2022/03/13 11:21:12;;;;;;;6.97;5.35;;;;;;;9.47;19.93;101612.91;5029530;28;20025;-79
2022/03/13 11:23:38;;;;;;;11.90;5.25;;;;;;;9.24;21.08;101609.09;5040949;28;20051;-78
2022/03/13 11:26:06;;;;;;;9.02;6.18;;;;;;;9.63;20.49;101614.25;5034505;28;20033;-80
2022/03/13 11:28:32;;;;;;;8.63;4.97;;;;;;;9.24;20.63;101605.63;5028783;28;20048;-80
2022/03/13 11:30:58;;;;;;;9.02;5.15;;;;;;;9.12;20.64;101607.63;5009971;28;20033;-80
2022/03/13 11:33:34;;;;;;;9.60;5.80;;;;;;;9.15;20.95;101601.47;5049193;28;20099;-79